Time;durP1;ratioP1;P1;durP2;ratioP2;P2;SDS_P1;SDS_P2;PMS_P1;PMS_P2;Temp;Humidity;BMP_temperature;BMP_pressure;BME280_temperature;BME280_humidity;BME280_pressure;Samples;Min_cycle;Max_cycle;Signal;HPM_P1;HPM_P2
2022/08/01 00:01:38;;;;;;;6.80;2.28;;;23.40;55.40;;;22.87;41.90;97366.25;5032489;28;20407;-74
2022/08/01 00:04:05;;;;;;;3.00;2.00;;;23.40;55.60;;;22.85;41.92;97367.72;5031827;28;20415;-75
2022/08/01 00:06:31;;;;;;;5.07;1.98;;;23.40;55.60;;;22.82;41.99;97358.38;5032449;28;20407;-76
2022/08/01 00:08:58;;;;;;;3.43;2.07;;;23.40;55.60;;;22.81;42.08;97361.41;5032365;28;20437;-77
2022/08/01 00:11:24;;;;;;;3.63;2.13;;;23.30;55.60;;;22.74;42.19;97362.72;5032305;28;20406;-76
2022/08/01 00:13:50;;;;;;;3.38;2.30;;;23.20;55.70;;;22.71;42.55;97363.34;5031715;28;20411;-76
2022/08/01 00:16:16;;;;;;;4.43;1.92;;;23.20;56.00;;;22.72;42.52;97369.53;5032301;28;20407;-77
2022/08/01 00:18:42;;;;;;;4.40;2.28;;;23.20;56.00;;;22.71;42.71;97366.03;5030886;28;20986;-77
2022/08/01 00:21:08;;;;;;;3.20;2.30;;;23.20;56.30;;;22.67;42.87;97364.34;5032248;28;20879;-74
2022/08/01 00:23:34;;;;;;;5.50;2.20;;;23.20;56.40;;;22.64;43.02;97367.69;5031586;28;20410;-75
2022/08/01 00:26:02;;;;;;;4.32;2.17;;;23.20;56.50;;;22.59;43.05;97367.91;5031856;28;20969;-77
2022/08/01 00:28:28;;;;;;;5.25;2.20;;;23.10;56.60;;;22.57;43.30;97362.03;5031914;28;20426;-77
2022/08/01 00:30:54;;;;;;;4.00;2.10;;;23.10;56.80;;;22.59;43.47;97366.00;5031976;28;20411;-77
2022/08/01 00:33:20;;;;;;;4.25;2.45;;;23.10;56.90;;;22.51;43.71;97368.75;5031349;28;20411;-76
2022/08/01 00:35:46;;;;;;;3.28;2.30;;;23.00;57.20;;;22.49;43.80;97377.16;5031767;28;20406;-76
2022/08/01 00:38:12;;;;;;;5.38;2.28;;;23.00;57.30;;;22.50;43.90;97376.06;5031822;28;20407;-76
2022/08/01 00:40:38;;;;;;;3.60;2.53;;;23.00;57.40;;;22.51;43.95;97374.94;5031835;28;20407;-76
2022/08/01 00:43:05;;;;;;;4.57;2.40;;;23.00;57.50;;;22.40;44.51;97381.84;5030127;28;20421;-76
2022/08/01 00:45:31;;;;;;;5.47;2.30;;;22.90;57.80;;;22.43;44.45;97386.56;5031448;28;20425;-76
2022/08/01 00:47:57;;;;;;;4.07;2.30;;;22.90;58.00;;;22.41;44.39;97380.72;5031704;28;20411;-76
2022/08/01 00:50:24;;;;;;;3.03;2.40;;;22.90;58.10;;;22.41;44.47;97380.72;5031559;28;20490;-76
2022/08/01 00:52:51;;;;;;;4.13;2.53;;;22.90;58.20;;;22.36;44.75;97383.59;5031363;28;20414;-76
2022/08/01 00:55:20;;;;;;;3.60;2.00;;;22.90;58.40;;;22.33;44.88;97385.03;5051552;22;20427;-71
2022/08/01 00:57:46;;;;;;;4.97;2.90;;;22.80;58.40;;;22.32;45.02;97377.31;5071288;28;20392;-72
2022/08/01 01:00:14;;;;;;;4.53;2.30;;;22.80;58.60;;;22.28;45.31;97384.44;5071370;28;20549;-72
2022/08/01 01:02:40;;;;;;;5.18;2.33;;;22.80;58.90;;;22.23;45.41;97385.44;5070971;28;20411;-72
2022/08/01 01:05:08;;;;;;;8.15;2.45;;;22.70;59.00;;;22.13;45.74;97391.19;5070831;28;20473;-72
2022/08/01 01:07:48;;;;;;;3.70;2.30;;;22.60;59.30;;;22.12;45.81;97380.72;5071033;28;20484;-72
2022/08/01 01:10:21;;;;;;;4.47;2.22;;;22.60;59.50;;;22.00;46.56;97378.75;5071134;28;20400;-72
2022/08/01 01:12:55;;;;;;;4.13;2.50;;;22.50;60.00;;;21.99;46.46;97383.34;5070661;28;20450;-72
2022/08/01 01:15:30;;;;;;;7.32;2.40;;;22.50;60.10;;;21.98;46.64;97387.16;5070798;28;20453;-72
2022/08/01 01:18:01;;;;;;;4.60;2.50;;;22.50;60.20;;;21.93;47.12;97389.22;5070972;28;20395;-72
2022/08/01 01:20:33;;;;;;;7.07;2.55;;;22.40;60.60;;;21.91;47.01;97399.53;5070880;28;20884;-72
2022/08/01 01:23:20;;;;;;;4.70;2.17;;;22.40;60.70;;;21.81;47.27;97395.28;5070656;28;20404;-72
2022/08/01 01:26:09;;;;;;;3.05;2.35;;;22.30;61.00;;;21.74;47.59;97399.56;5070680;28;20579;-72
2022/08/01 01:29:05;;;;;;;6.22;2.40;;;22.30;61.40;;;21.69;47.69;97397.06;5070909;28;20403;-72
2022/08/01 01:31:37;;;;;;;3.25;2.42;;;22.20;61.80;;;21.66;47.89;97403.88;5070831;28;20958;-72
2022/08/01 01:34:04;;;;;;;3.38;2.47;;;22.20;61.90;;;21.63;48.32;97396.47;5070310;28;20427;-72
2022/08/01 01:36:32;;;;;;;3.58;2.58;;;22.10;62.20;;;21.60;48.35;97400.59;5070553;28;20487;-73
2022/08/01 01:39:00;;;;;;;4.47;2.30;;;22.10;62.20;;;21.58;48.34;97394.72;5070681;28;20399;-72
2022/08/01 01:41:28;;;;;;;4.50;2.63;;;22.10;62.40;;;21.54;48.55;97401.06;5070855;28;20395;-72
2022/08/01 01:43:55;;;;;;;2.85;2.50;;;22.10;62.60;;;21.53;48.77;97402.19;5069503;28;20395;-72
2022/08/01 01:46:26;;;;;;;3.92;2.50;;;22.10;62.90;;;21.47;48.92;97401.56;5070526;28;20396;-72
2022/08/01 01:48:56;;;;;;;4.80;2.40;;;22.00;62.90;;;21.48;48.86;97402.38;5070589;28;20435;-72
2022/08/01 01:51:24;;;;;;;6.32;2.40;;;22.00;63.10;;;21.42;49.18;97399.06;5070452;28;20466;-72
2022/08/01 01:53:52;;;;;;;4.38;2.65;;;22.00;63.50;;;21.38;49.41;97403.50;5069983;28;20410;-72
2022/08/01 01:56:21;;;;;;;3.42;2.28;;;21.90;63.60;;;21.26;49.76;97400.66;5070217;28;20411;-72
2022/08/01 01:58:51;;;;;;;3.63;2.53;;;21.70;64.20;;;21.22;50.12;97402.41;5070409;28;20396;-71
2022/08/01 02:01:19;;;;;;;4.07;2.50;;;21.70;64.40;;;21.27;50.17;97404.94;5070450;28;20486;-71
2022/08/01 02:03:48;;;;;;;4.40;2.50;;;21.80;64.60;;;21.29;50.21;97401.91;5069848;28;20400;-71
2022/08/01 02:06:15;;;;;;;3.42;2.40;;;21.80;64.70;;;21.19;50.67;97398.47;5070217;28;20416;-71
2022/08/01 02:08:42;;;;;;;4.55;2.33;;;21.70;65.20;;;21.16;50.93;97407.16;5070316;28;20396;-72
2022/08/01 02:11:18;;;;;;;3.35;2.45;;;21.70;65.50;;;21.16;51.14;97398.28;5070419;28;20897;-72
2022/08/01 02:13:50;;;;;;;4.60;2.30;;;21.70;65.70;;;21.16;51.21;97398.28;5069742;28;20395;-72
2022/08/01 02:16:17;;;;;;;3.75;2.67;;;21.70;65.80;;;21.18;51.33;97401.47;5070491;28;20400;-72
2022/08/01 02:18:43;;;;;;;4.38;2.60;;;21.70;65.90;;;21.20;51.42;97394.63;5070257;28;20916;-72
2022/08/01 02:21:18;;;;;;;4.07;2.53;;;21.80;66.20;;;21.22;51.54;97402.41;5070234;28;20395;-72
2022/08/01 02:23:44;;;;;;;3.53;2.33;;;21.80;66.30;;;21.21;51.52;97408.91;5069626;28;20395;-72
2022/08/01 02:26:15;;;;;;;3.00;2.40;;;21.80;66.30;;;21.21;51.44;97401.63;5070060;28;20412;-72
2022/08/01 02:28:49;;;;;;;4.32;2.80;;;21.80;66.20;;;21.09;51.93;97406.03;5070206;28;20395;-72
2022/08/01 02:31:20;;;;;;;4.30;2.40;;;21.60;66.60;;;21.05;52.00;97410.50;5070173;28;20407;-72
2022/08/01 02:33:55;;;;;;;5.73;2.33;;;21.60;67.00;;;21.05;52.18;97411.25;5069587;28;20411;-72
2022/08/01 02:36:27;;;;;;;3.40;2.50;;;21.60;67.10;;;21.06;52.16;97412.03;5070121;28;20559;-73
2022/08/01 02:38:56;;;;;;;4.72;2.60;;;21.60;67.20;;;21.00;52.55;97413.31;5070141;28;20400;-72
2022/08/01 02:41:26;;;;;;;3.43;2.47;;;21.50;67.50;;;20.95;52.76;97411.59;5070036;28;20400;-72
2022/08/01 02:43:57;;;;;;;4.60;2.53;;;21.50;67.80;;;20.92;53.10;97422.19;5069577;28;20423;-72
2022/08/01 02:46:36;;;;;;;3.90;2.65;;;21.50;68.20;;;20.84;53.32;97423.75;5068719;28;20777;-72
2022/08/01 02:49:05;;;;;;;5.32;2.50;;;21.40;68.50;;;20.85;53.33;97417.28;5069910;28;20411;-71
2022/08/01 02:51:34;;;;;;;3.58;2.60;;;21.40;68.60;;;20.83;53.30;97422.19;5069897;28;20407;-72
2022/08/01 02:54:04;;;;;;;4.45;2.63;;;21.40;68.70;;;20.81;53.50;97429.78;5069412;28;20485;-72
2022/08/01 02:56:35;;;;;;;5.30;2.40;;;21.40;68.90;;;20.75;53.71;97431.81;5073245;28;20403;-72
2022/08/01 02:59:05;;;;;;;5.32;2.53;;;21.30;69.10;;;20.72;53.89;97431.69;5073607;28;20398;-72
2022/08/01 03:01:34;;;;;;;3.80;2.90;;;21.30;69.50;;;20.70;54.10;97418.53;5073696;28;20392;-72
2022/08/01 03:04:00;;;;;;;4.47;2.40;;;21.20;69.70;;;20.61;54.62;97425.81;5072940;28;20429;-72
2022/08/01 03:06:27;;;;;;;7.63;2.80;;;21.10;70.30;;;20.60;54.66;97426.91;5073323;28;20412;-72
2022/08/01 03:08:56;;;;;;;5.28;2.40;;;21.20;70.50;;;20.59;54.77;97422.66;5073376;28;20859;-72
2022/08/01 03:11:24;;;;;;;3.33;2.40;;;21.20;70.60;;;20.53;55.14;97425.78;5073333;28;20404;-72
2022/08/01 03:13:51;;;;;;;3.70;2.50;;;21.00;71.10;;;20.51;55.34;97428.81;5072927;28;20457;-72
2022/08/01 03:16:19;;;;;;;4.88;2.40;;;21.10;71.40;;;20.51;55.42;97428.81;5073168;28;20406;-72
2022/08/01 03:18:46;;;;;;;4.43;2.60;;;21.00;71.70;;;20.48;55.80;97421.38;5073242;28;20446;-72
2022/08/01 03:21:13;;;;;;;3.60;2.47;;;21.00;71.90;;;20.39;56.03;97424.03;5073264;28;20799;-72
2022/08/01 03:23:41;;;;;;;3.78;2.67;;;20.90;72.20;;;20.38;56.03;97433.19;5072734;28;20454;-72
2022/08/01 03:26:09;;;;;;;3.08;2.33;;;20.90;72.50;;;20.44;56.03;97426.59;5072980;28;20604;-72
2022/08/01 03:28:38;;;;;;;3.65;2.58;;;21.00;72.40;;;20.43;55.95;97426.91;5071834;28;20423;-72
2022/08/01 03:31:05;;;;;;;5.13;2.97;;;21.00;72.30;;;20.43;55.83;97425.00;5073106;28;20403;-72
2022/08/01 03:33:31;;;;;;;2.90;2.45;;;21.00;72.30;;;20.36;56.08;97431.94;5072608;28;20457;-72
2022/08/01 03:36:01;;;;;;;3.47;2.67;;;21.00;72.50;;;20.38;56.21;97430.50;5072868;28;20827;-72
2022/08/01 03:38:32;;;;;;;4.47;2.63;;;21.00;72.40;;;20.32;56.06;97429.03;5073028;28;20765;-71
2022/08/01 03:41:08;;;;;;;3.60;2.40;;;20.80;72.60;;;20.27;56.42;97431.88;5072905;28;20403;-70
2022/08/01 03:43:43;;;;;;;3.27;2.33;;;20.80;72.90;;;20.24;56.40;97429.81;5072361;28;20478;-71
2022/08/01 03:46:17;;;;;;;5.07;2.80;;;20.90;73.10;;;20.19;56.49;97424.59;5072602;28;20465;-71
2022/08/01 03:48:48;;;;;;;3.38;2.55;;;20.70;73.10;;;20.18;56.46;97430.28;5072654;28;20410;-71
2022/08/01 03:51:17;;;;;;;3.90;2.20;;;20.80;73.30;;;20.14;56.59;97430.13;5072834;28;20757;-71
2022/08/01 03:53:47;;;;;;;3.60;2.40;;;20.80;73.30;;;20.13;56.58;97427.72;5072054;28;20449;-70
2022/08/01 03:56:19;;;;;;;4.97;2.63;;;20.70;73.40;;;20.06;56.86;97426.28;5072373;28;20404;-71
2022/08/01 03:58:47;;;;;;;3.05;2.50;;;20.60;74.40;;;20.05;57.11;97429.28;5072566;28;20473;-72
2022/08/01 04:01:14;;;;;;;5.43;2.50;;;20.60;73.90;;;20.06;57.17;97431.66;5072612;28;20396;-71
2022/08/01 04:03:40;;;;;;;3.35;2.55;;;20.60;74.10;;;20.05;57.17;97437.34;5071953;28;20396;-71
2022/08/01 04:06:10;;;;;;;4.70;2.70;;;20.60;74.40;;;20.05;57.47;97431.97;5070611;28;20492;-71
2022/08/01 04:08:36;;;;;;;4.07;2.30;;;20.60;74.60;;;20.05;57.52;97431.97;5072269;28;20494;-71
2022/08/01 04:11:02;;;;;;;4.57;2.33;;;20.60;74.70;;;20.07;57.70;97437.84;5072293;28;20449;-71
2022/08/01 04:13:28;;;;;;;4.63;2.33;;;20.60;75.00;;;20.09;57.60;97432.94;5071759;28;20419;-71
2022/08/01 04:15:55;;;;;;;3.85;2.50;;;20.70;75.00;;;20.08;57.60;97431.34;5072104;28;20897;-71
2022/08/01 04:18:21;;;;;;;3.22;2.47;;;20.60;75.00;;;20.15;57.71;97436.28;5072310;28;21094;-72
2022/08/01 04:20:48;;;;;;;4.67;2.53;;;20.70;75.30;;;20.17;57.68;97434.06;5072066;28;20400;-71
2022/08/01 04:23:17;;;;;;;4.35;2.40;;;20.70;75.30;;;20.18;57.75;97431.06;5071777;28;20415;-71
2022/08/01 04:25:45;;;;;;;6.40;2.45;;;20.70;75.40;;;20.19;57.73;97440.72;5071761;28;20412;-71
2022/08/01 04:28:16;;;;;;;3.33;2.08;;;20.70;75.50;;;20.24;57.94;97437.88;5071945;28;20479;-71
2022/08/01 04:30:46;;;;;;;5.90;2.30;;;20.80;75.90;;;20.31;57.79;97446.28;5070688;28;20878;-71
2022/08/01 04:33:16;;;;;;;3.95;2.33;;;20.90;75.70;;;20.35;57.83;97449.19;5071413;28;20396;-71
2022/08/01 04:35:45;;;;;;;3.13;2.25;;;20.90;75.60;;;20.33;57.88;97451.34;5071674;28;20395;-71
2022/08/01 04:38:16;;;;;;;3.25;2.40;;;20.90;75.70;;;20.23;58.21;97444.34;5071762;28;20430;-71
2022/08/01 04:40:45;;;;;;;4.60;2.28;;;20.80;76.00;;;20.24;58.24;97455.91;5071777;28;20402;-70
2022/08/01 04:43:12;;;;;;;3.22;2.30;;;20.80;76.30;;;20.31;58.32;97450.84;5071314;28;20403;-71
2022/08/01 04:45:38;;;;;;;3.05;2.10;;;20.90;76.70;;;20.35;58.20;97451.88;5071360;28;20422;-72
2022/08/01 04:48:06;;;;;;;3.42;2.30;;;20.90;76.40;;;20.25;58.77;97463.66;5071331;28;20513;-73
2022/08/01 04:50:36;;;;;;;3.85;2.25;;;20.70;77.10;;;20.31;58.75;97457.03;5071375;28;20457;-71
2022/08/01 04:53:02;;;;;;;2.70;2.17;;;20.80;77.10;;;20.34;58.71;97444.91;5071000;28;20881;-72
2022/08/01 04:55:29;;;;;;;3.22;2.20;;;20.90;77.20;;;20.36;58.72;97445.38;5071004;28;20408;-71
2022/08/01 04:57:55;;;;;;;3.40;2.05;;;20.90;77.20;;;20.31;59.02;97446.28;5071164;28;20403;-72
2022/08/01 05:00:21;;;;;;;4.20;2.38;;;20.80;77.50;;;20.34;59.04;97448.38;5071348;28;20422;-73
2022/08/01 05:02:47;;;;;;;4.72;2.70;;;20.80;77.80;;;20.30;59.11;97441.19;5070713;28;20449;-72
2022/08/01 05:05:13;;;;;;;5.80;2.20;;;20.80;78.00;;;20.41;58.91;97440.66;5070810;28;20519;-72
2022/08/01 05:07:41;;;;;;;4.03;2.20;;;20.90;77.80;;;20.34;59.19;97436.84;5071142;28;20430;-72
2022/08/01 05:10:08;;;;;;;3.90;2.17;;;20.90;77.90;;;20.36;59.25;97432.75;5071058;28;20427;-72
2022/08/01 05:12:33;;;;;;;4.30;2.30;;;20.90;78.10;;;20.33;59.45;97429.84;5070939;28;20412;-72
2022/08/01 05:15:00;;;;;;;3.65;2.10;;;20.80;78.40;;;20.32;59.60;97441.69;5070430;28;20400;-72
2022/08/01 05:17:26;;;;;;;3.92;2.17;;;20.90;78.50;;;20.43;59.31;97433.06;5070845;28;20399;-72
2022/08/01 05:19:52;;;;;;;3.80;1.95;;;20.90;78.60;;;20.46;59.61;97439.69;5070114;28;20403;-72
2022/08/01 05:22:18;;;;;;;3.83;2.03;;;21.00;78.90;;;20.57;59.33;97441.00;5071022;28;20450;-72
2022/08/01 05:24:46;;;;;;;4.10;2.10;;;21.10;79.40;;;20.73;59.03;97444.81;5070142;28;20893;-72
2022/08/01 05:27:13;;;;;;;2.50;1.90;;;21.30;78.60;;;20.84;58.49;97443.41;5069471;28;20403;-72
2022/08/01 05:29:39;;;;;;;2.63;1.80;;;21.40;77.80;;;20.92;58.33;97444.50;5070806;28;20404;-72
2022/08/01 05:32:06;;;;;;;4.70;2.10;;;21.50;77.50;;;20.96;58.19;97444.69;5070692;28;20482;-72
2022/08/01 05:34:32;;;;;;;3.10;2.00;;;21.50;77.30;;;21.01;58.20;97441.81;5070212;28;20411;-72
2022/08/01 05:36:58;;;;;;;2.38;1.95;;;21.60;77.10;;;21.04;58.25;97447.38;5070549;28;20408;-72
2022/08/01 05:39:24;;;;;;;3.30;2.00;;;21.60;77.20;;;21.09;58.28;97449.91;5070631;28;20888;-72
2022/08/01 05:41:52;;;;;;;4.60;2.33;;;21.70;77.20;;;21.14;58.29;97455.13;5070650;28;20474;-72
2022/08/01 05:44:18;;;;;;;3.22;2.15;;;21.70;77.30;;;21.18;58.00;97456.13;5070064;28;20402;-72
2022/08/01 05:46:44;;;;;;;5.32;2.25;;;21.80;77.00;;;21.21;58.03;97447.38;5070235;28;20404;-72
2022/08/01 05:49:10;;;;;;;4.40;1.90;;;21.80;76.90;;;21.24;58.43;97456.72;5070469;28;20396;-72
2022/08/01 05:51:36;;;;;;;2.72;2.00;;;21.80;77.20;;;21.27;58.23;97456.09;5070557;28;20964;-72
2022/08/01 05:54:02;;;;;;;3.63;1.75;;;21.80;77.30;;;21.32;58.08;97457.84;5069851;28;20408;-72
2022/08/01 05:56:28;;;;;;;3.38;1.85;;;21.90;77.20;;;21.37;57.92;97454.97;5069971;28;20406;-72
2022/08/01 05:58:55;;;;;;;4.55;2.00;;;21.90;78.10;;;21.39;58.25;97463.53;5068906;28;20411;-71
2022/08/01 06:01:21;;;;;;;2.15;1.80;;;21.90;77.30;;;21.44;57.75;97464.16;5070355;28;20501;-72
2022/08/01 06:03:47;;;;;;;3.58;1.60;;;21.90;77.10;;;21.48;57.81;97461.63;5069727;28;20400;-72
2022/08/01 06:06:16;;;;;;;2.75;1.67;;;22.00;76.90;;;21.49;58.18;97468.59;5070062;28;20758;-72
2022/08/01 06:08:42;;;;;;;5.50;1.80;;;22.00;77.40;;;21.52;57.85;97466.03;5070242;28;20396;-72
2022/08/01 06:11:08;;;;;;;4.35;1.85;;;22.10;77.00;;;21.54;57.82;97463.81;5070195;28;20403;-72
2022/08/01 06:13:34;;;;;;;4.87;1.80;;;22.10;77.00;;;21.59;57.73;97460.16;5069678;28;20421;-71
2022/08/01 06:16:02;;;;;;;3.45;1.85;;;22.20;76.70;;;21.64;57.53;97460.00;5070115;28;20400;-71
2022/08/01 06:18:28;;;;;;;3.08;1.90;;;22.20;76.80;;;21.66;57.68;97467.75;5070169;28;20400;-72
2022/08/01 06:20:54;;;;;;;2.25;1.70;;;22.20;76.60;;;21.66;57.69;97454.28;5070214;28;20772;-71
2022/08/01 06:23:20;;;;;;;4.50;1.90;;;22.20;76.80;;;21.68;57.19;97463.63;5069603;28;20446;-72
2022/08/01 06:25:47;;;;;;;2.80;1.70;;;22.20;76.40;;;21.75;57.04;97465.84;5069941;28;20927;-72
2022/08/01 06:28:13;;;;;;;4.97;1.73;;;22.30;76.20;;;21.77;57.23;97466.31;5070036;28;20428;-72
2022/08/01 06:30:39;;;;;;;3.47;2.10;;;22.30;76.20;;;21.71;57.55;97460.31;5072238;28;20498;-72
2022/08/01 06:33:06;;;;;;;4.15;1.77;;;22.20;76.50;;;21.71;57.42;97457.63;5073638;28;20452;-72
2022/08/01 06:35:32;;;;;;;5.03;2.20;;;22.20;76.40;;;21.74;57.74;97464.25;5073817;28;20388;-72
2022/08/01 06:37:58;;;;;;;3.00;1.87;;;22.30;76.90;;;21.79;57.71;97454.09;5072659;28;20970;-71
2022/08/01 06:40:24;;;;;;;2.47;1.50;;;22.30;76.90;;;21.83;57.56;97454.25;5073925;28;20403;-71
2022/08/01 06:42:50;;;;;;;4.80;1.60;;;22.30;76.70;;;21.90;57.37;97462.63;5073493;28;20396;-72
2022/08/01 06:45:17;;;;;;;1.55;1.40;;;22.40;76.60;;;21.95;57.71;97459.78;5073435;28;20419;-72
2022/08/01 06:47:44;;;;;;;2.03;1.48;;;22.50;77.70;;;21.99;57.19;97466.09;5073809;28;20403;-71
2022/08/01 06:50:14;;;;;;;4.10;1.67;;;22.50;76.30;;;22.03;57.68;97460.88;5073720;28;20504;-72
2022/08/01 06:52:41;;;;;;;6.78;1.70;;;22.50;76.60;;;22.05;57.27;97469.41;5073504;28;20943;-71
2022/08/01 06:57:47;;;;;;;3.42;1.70;;;22.60;76.80;;;22.16;57.13;97465.25;5031510;28;20427;-70
2022/08/01 07:00:16;;;;;;;3.35;1.60;;;22.70;76.30;;;22.15;57.09;97469.06;5033461;28;20465;-70
2022/08/01 07:02:42;;;;;;;1.63;1.20;;;22.70;76.30;;;22.16;57.15;97470.66;5033302;28;20414;-70
2022/08/01 07:05:10;;;;;;;2.05;1.35;;;22.70;76.40;;;22.19;57.29;97470.00;5031645;28;20434;-70
2022/08/01 07:07:37;;;;;;;2.37;1.40;;;22.70;76.70;;;22.22;57.43;97470.16;5013926;28;20561;-71
2022/08/01 07:10:04;;;;;;;1.40;1.27;;;22.80;76.70;;;22.28;57.37;97466.16;5013737;28;20416;-70
2022/08/01 07:12:30;;;;;;;3.20;1.60;;;22.80;76.80;;;22.33;57.41;97465.16;5013627;28;20413;-70
2022/08/01 07:14:55;;;;;;;4.50;1.65;;;22.80;76.40;;;22.34;56.66;97464.84;5013228;28;20419;-70
2022/08/01 07:17:21;;;;;;;2.90;1.60;;;22.80;75.60;;;22.42;56.16;97465.13;5013555;28;20405;-71
2022/08/01 07:19:47;;;;;;;2.20;1.52;;;22.90;75.20;;;22.43;55.99;97459.41;5013502;28;20405;-70
2022/08/01 07:22:16;;;;;;;2.15;1.67;;;23.00;74.80;;;22.45;56.06;97459.09;5013587;28;20884;-70
2022/08/01 07:24:42;;;;;;;2.00;1.67;;;23.00;74.70;;;22.47;56.33;97465.75;5013031;28;20408;-70
2022/08/01 07:27:07;;;;;;;2.67;1.57;;;23.00;75.10;;;22.54;55.58;97463.31;5013341;28;20412;-70
2022/08/01 07:29:33;;;;;;;3.50;1.53;;;23.00;74.50;;;22.57;55.63;97454.56;5013358;28;20463;-71
2022/08/01 07:32:00;;;;;;;2.57;1.57;;;23.10;74.40;;;22.58;55.85;97458.84;5013445;28;20412;-70
2022/08/01 07:34:26;;;;;;;1.85;1.40;;;23.10;74.50;;;22.62;55.65;97457.09;5012830;28;20401;-71
2022/08/01 07:36:53;;;;;;;2.55;1.40;;;23.10;74.20;;;22.68;55.81;97457.69;5013350;28;20405;-71
2022/08/01 07:39:20;;;;;;;2.80;1.50;;;23.20;74.60;;;22.73;56.21;97452.09;5013212;28;20450;-71
2022/08/01 07:41:46;;;;;;;2.80;1.67;;;23.20;74.90;;;22.80;56.04;97452.38;5012203;28;20499;-70
2022/08/01 07:44:12;;;;;;;1.92;1.70;;;23.30;74.80;;;22.86;54.60;97448.34;5012562;28;20508;-70
2022/08/01 07:46:38;;;;;;;2.53;1.63;;;23.40;73.20;;;22.91;54.87;97453.59;5028287;28;20432;-70
2022/08/01 07:49:04;;;;;;;3.65;2.00;;;23.40;73.40;;;22.95;54.81;97459.09;5012954;28;20997;-71
2022/08/01 07:51:30;;;;;;;3.47;1.50;;;23.50;73.40;;;22.93;53.89;97464.06;5012860;28;20475;-70
2022/08/01 07:53:56;;;;;;;4.90;1.90;;;23.40;72.10;;;22.95;54.41;97456.41;5012456;28;20412;-70
2022/08/01 07:56:25;;;;;;;3.10;1.50;;;23.40;72.80;;;23.02;54.59;97448.56;5012733;28;20413;-70
2022/08/01 07:58:51;;;;;;;3.10;2.03;;;23.50;73.10;;;22.98;53.74;97442.25;5012680;28;20415;-70
2022/08/01 08:01:17;;;;;;;3.03;1.77;;;23.50;72.10;;;23.07;53.48;97451.09;5012992;28;20401;-71
2022/08/01 08:03:43;;;;;;;3.97;2.10;;;23.50;71.80;;;23.14;53.54;97460.22;5012191;28;20447;-70
2022/08/01 08:06:09;;;;;;;3.83;1.90;;;23.60;71.70;;;23.26;53.99;97458.69;5012383;28;20416;-70
2022/08/01 08:08:35;;;;;;;2.58;1.83;;;23.70;72.30;;;23.38;53.29;97450.66;5012581;28;20405;-70
2022/08/01 08:11:01;;;;;;;2.20;1.63;;;23.80;71.50;;;23.46;53.13;97452.47;5012579;28;20405;-71
2022/08/01 08:13:28;;;;;;;2.20;1.77;;;23.90;71.40;;;23.52;52.04;97460.06;5011959;28;20408;-70
2022/08/01 08:15:55;;;;;;;3.65;1.90;;;24.00;70.00;;;23.54;52.22;97455.09;5012372;28;20480;-70
2022/08/01 08:18:21;;;;;;;1.85;1.67;;;24.00;70.90;;;23.60;52.58;97446.81;5012438;28;20409;-70
2022/08/01 08:20:47;;;;;;;4.88;1.65;;;24.10;70.60;;;23.68;53.17;97446.69;5012359;28;20408;-70
2022/08/01 08:25:58;;;;;;;4.07;1.80;;;24.30;70.80;;;24.06;52.59;97449.13;5012088;28;20431;-70
2022/08/01 08:28:24;;;;;;;2.03;1.63;;;24.50;70.60;;;24.16;51.40;97440.56;5012166;28;20405;-70
2022/08/01 08:30:52;;;;;;;4.10;2.00;;;24.60;68.70;;;24.24;51.80;97438.91;5012156;28;20405;-71
2022/08/01 08:33:18;;;;;;;2.95;1.92;;;24.70;69.30;;;24.28;51.82;97447.97;5011747;28;20405;-69
2022/08/01 08:35:44;;;;;;;4.95;1.73;;;24.70;69.20;;;24.26;51.49;97451.00;5011887;28;20412;-72
2022/08/01 08:38:10;;;;;;;2.50;1.83;;;24.70;69.10;;;24.27;51.88;97446.38;5012045;28;20443;-71
2022/08/01 08:40:37;;;;;;;4.53;2.30;;;24.80;69.30;;;24.36;51.84;97447.03;5011940;28;20413;-71
2022/08/01 08:43:05;;;;;;;3.63;2.40;;;24.80;69.50;;;24.54;51.26;97444.88;5011562;28;20411;-71
2022/08/01 08:45:32;;;;;;;4.60;2.60;;;24.90;69.10;;;24.70;50.97;97440.34;5011647;28;20416;-71
2022/08/01 08:48:00;;;;;;;6.28;3.28;;;25.20;68.50;;;24.72;49.98;97440.81;5011855;28;20404;-71
2022/08/01 08:50:26;;;;;;;4.80;2.70;;;25.20;67.10;;;24.74;50.12;97445.84;5011764;28;20882;-71
2022/08/01 08:52:54;;;;;;;3.80;2.22;;;25.20;67.00;;;24.71;50.21;97446.56;5011165;28;20401;-71
2022/08/01 08:55:22;;;;;;;3.30;2.20;;;25.10;67.20;;;24.64;50.28;97437.09;5011398;28;20938;-71
2022/08/01 08:57:49;;;;;;;2.90;2.00;;;25.10;67.00;;;24.65;50.52;97446.00;5011731;28;20408;-70
2022/08/01 09:00:16;;;;;;;2.45;2.17;;;25.10;67.40;;;24.66;50.53;97442.94;5011595;28;20813;-70
2022/08/01 09:02:43;;;;;;;4.03;3.00;;;25.10;67.70;;;24.66;51.24;97442.16;5011070;28;20417;-71
2022/08/01 09:05:11;;;;;;;5.10;3.00;;;25.10;68.10;;;24.68;51.12;97442.59;5011243;28;20890;-71
2022/08/01 09:07:38;;;;;;;5.28;3.00;;;25.10;68.10;;;24.82;50.02;97439.53;5011470;28;20416;-70
2022/08/01 09:10:06;;;;;;;5.35;3.10;;;25.20;67.40;;;24.89;50.05;97448.66;5011280;28;20405;-70
2022/08/01 09:12:32;;;;;;;4.60;2.85;;;25.30;66.90;;;24.97;49.67;97450.47;5011285;28;20534;-70
2022/08/01 09:14:58;;;;;;;5.05;3.03;;;25.40;66.80;;;24.99;49.54;97453.63;5010863;28;20960;-71
2022/08/01 09:17:24;;;;;;;7.20;3.90;;;25.40;66.10;;;25.00;49.58;97452.50;5011229;28;20459;-71
2022/08/01 09:19:52;;;;;;;7.57;4.05;;;25.40;66.40;;;24.92;49.58;97448.00;5011229;28;20512;-71
2022/08/01 09:22:22;;;;;;;8.13;4.10;;;25.40;66.20;;;24.86;48.81;97453.97;5011291;28;20491;-71
2022/08/01 09:25:00;;;;;;;8.25;3.95;;;25.30;65.60;;;24.85;49.67;97452.38;5010745;28;20894;-70
2022/08/01 09:27:26;;;;;;;7.38;4.70;;;25.30;66.30;;;24.85;50.23;97460.50;5011116;28;20900;-71
2022/08/01 09:29:53;;;;;;;6.28;4.28;;;25.30;67.00;;;24.79;48.86;97462.69;5011160;28;20409;-71
2022/08/01 09:32:19;;;;;;;5.88;3.78;;;25.20;65.50;;;24.87;48.37;97469.88;5011097;28;20401;-70
2022/08/01 09:34:48;;;;;;;6.05;4.10;;;25.30;65.70;;;24.88;48.60;97459.84;5010584;28;20409;-70
2022/08/01 09:37:17;;;;;;;12.07;5.22;;;25.30;65.20;;;24.91;49.31;97459.16;5010829;28;20408;-70
2022/08/01 09:39:45;;;;;;;8.85;5.50;;;25.30;65.80;;;24.98;49.29;97462.09;5011118;28;20408;-70
2022/08/01 09:42:23;;;;;;;6.25;4.80;;;25.40;65.90;;;24.99;49.49;97469.09;5011019;28;20954;-70
2022/08/01 09:44:50;;;;;;;5.75;4.35;;;25.40;65.80;;;25.02;49.61;97466.50;5010493;28;20401;-70
2022/08/01 09:47:20;;;;;;;8.43;4.70;;;25.50;66.10;;;25.06;49.60;97467.38;5010791;28;20403;-70
2022/08/01 09:49:54;;;;;;;7.80;4.45;;;25.50;66.00;;;25.09;49.49;97465.91;5025992;28;20416;-71
2022/08/01 09:52:24;;;;;;;7.45;4.40;;;25.50;66.00;;;25.02;49.21;97466.50;5010926;28;20940;-70
2022/08/01 09:54:55;;;;;;;8.18;4.72;;;25.50;65.40;;;25.10;49.48;97464.00;5010393;28;20404;-70
2022/08/01 09:57:21;;;;;;;7.07;4.38;;;25.50;66.00;;;25.17;49.42;97464.97;5010727;28;20413;-70
2022/08/01 09:59:50;;;;;;;6.70;4.47;;;25.60;65.90;;;25.20;49.14;97463.47;5010745;28;20435;-71
2022/08/01 10:02:30;;;;;;;6.03;3.92;;;25.60;65.60;;;25.25;49.02;97465.97;5010816;28;20462;-71
2022/08/01 10:04:56;;;;;;;4.65;3.80;;;25.70;65.80;;;25.23;48.20;97460.09;5009664;28;20882;-71
2022/08/01 10:07:22;;;;;;;5.60;3.60;;;25.70;64.60;;;25.22;48.91;97461.22;5010482;28;20408;-71
2022/08/01 10:09:48;;;;;;;5.22;3.95;;;25.70;65.50;;;25.21;49.11;97465.84;5010490;28;20496;-71
2022/08/01 10:12:23;;;;;;;5.28;3.50;;;25.70;65.40;;;25.26;49.84;97456.72;5010501;28;20400;-70
2022/08/01 10:14:55;;;;;;;4.85;3.33;;;25.70;66.30;;;25.43;49.61;97457.19;5010098;28;20400;-71
2022/08/01 10:17:24;;;;;;;5.60;3.38;;;25.80;66.40;;;25.58;47.05;97452.16;5010581;28;20436;-71
2022/08/01 10:19:54;;;;;;;4.17;3.03;;;26.10;64.40;;;25.71;47.00;97462.59;5010615;28;20409;-71
2022/08/01 10:22:24;;;;;;;4.78;3.05;;;26.10;63.40;;;25.79;46.43;97447.31;5010589;28;20405;-70
2022/08/01 10:24:54;;;;;;;4.72;2.60;;;26.20;62.50;;;25.80;47.28;97451.59;5009832;28;20409;-71
2022/08/01 10:27:23;;;;;;;4.80;2.40;;;26.20;62.90;;;25.61;46.38;97446.88;5010486;28;20398;-71
2022/08/01 10:29:56;;;;;;;2.88;2.40;;;26.10;62.10;;;25.73;46.86;97440.56;5010374;28;20397;-71